createdAt,value
2019-02-11T00:03:38.033Z,98095.37
2019-02-11T00:06:07.645Z,98089.91
2019-02-11T00:08:59.633Z,98088.16
2019-02-11T00:11:08.286Z,98094.19
2019-02-11T00:13:37.713Z,98100.81
2019-02-11T00:16:07.123Z,98102.13
2019-02-11T00:18:36.718Z,98100.59
2019-02-11T00:21:06.280Z,98095.65
2019-02-11T00:23:35.696Z,98103.23
2019-02-11T00:26:24.406Z,98102.64
2019-02-11T00:28:54.071Z,98102.64
2019-02-11T00:31:23.791Z,98097.35
2019-02-11T00:36:29.528Z,98089.84
2019-02-11T00:38:59.002Z,98097.94
2019-02-11T00:41:28.417Z,98100.52
2019-02-11T00:43:57.843Z,98105.80
2019-02-11T00:46:27.297Z,98105.20
2019-02-11T00:49:16.991Z,98113.15
2019-02-11T00:51:46.687Z,98113.15
2019-02-11T00:54:16.110Z,98103.67
2019-02-11T00:56:45.580Z,98103.67
2019-02-11T00:59:15.315Z,98108.91
2019-02-11T01:01:46.516Z,98115.53
2019-02-11T01:04:27.376Z,98113.39
2019-02-11T01:06:57.000Z,98116.55
2019-02-11T01:09:31.457Z,98116.02
2019-02-11T01:12:00.925Z,98126.69
2019-02-11T01:14:30.447Z,98124.47
2019-02-11T01:17:00.075Z,98127.28
2019-02-11T01:19:29.489Z,98132.48
2019-02-11T01:22:08.488Z,98125.78
2019-02-11T01:24:37.959Z,98125.57
2019-02-11T01:27:07.407Z,98130.64
2019-02-11T01:29:36.889Z,98130.64
2019-02-11T01:32:06.340Z,98129.32
2019-02-11T01:34:54.819Z,98122.62
2019-02-11T01:40:10.077Z,98119.25
2019-02-11T01:48:08.886Z,98121.00
2019-02-11T01:53:55.409Z,98113.73
2019-02-11T01:59:06.084Z,98114.77
2019-02-11T02:01:35.576Z,98116.60
2019-02-11T02:04:04.996Z,98117.92
2019-02-11T02:09:11.206Z,98116.73
2019-02-11T02:11:52.639Z,98116.43
2019-02-11T02:14:22.354Z,98112.89
2019-02-11T02:16:51.863Z,98112.89
2019-02-11T02:19:40.288Z,98111.56
2019-02-11T02:22:09.798Z,98117.88
2019-02-11T02:24:39.221Z,98123.98
2019-02-11T02:27:08.667Z,98122.58
2019-02-11T02:29:38.066Z,98118.47
2019-02-11T02:32:07.487Z,98118.47
2019-02-11T02:40:25.745Z,98136.77
2019-02-11T02:42:55.159Z,98141.19
2019-02-11T02:45:24.591Z,98141.57
2019-02-11T02:47:54.017Z,98153.56
2019-02-11T02:56:04.880Z,98156.14
2019-02-11T02:58:34.290Z,98159.38
2019-02-11T03:01:04.527Z,98165.58
2019-02-11T03:03:33.991Z,98172.19
2019-02-11T03:06:04.585Z,98177.99
2019-02-11T03:08:33.983Z,98179.48
2019-02-11T03:11:12.266Z,98178.52
2019-02-11T03:13:53.015Z,98186.16
2019-02-11T03:16:22.521Z,98165.19
2019-02-11T03:18:51.994Z,98184.54
2019-02-11T03:21:40.421Z,98188.51
2019-02-11T03:24:09.879Z,98192.94
2019-02-11T03:27:02.138Z,98190.75
2019-02-11T03:29:31.802Z,98194.60
2019-02-11T03:32:01.239Z,98192.98
2019-02-11T03:34:30.767Z,98191.56
2019-02-11T03:37:00.236Z,98194.22
2019-02-11T03:39:29.692Z,98197.88
2019-02-11T03:42:18.409Z,98191.87
2019-02-11T03:47:42.028Z,98200.58
2019-02-11T03:50:31.868Z,98210.09
2019-02-11T03:53:01.541Z,98212.73
2019-02-11T03:55:31.132Z,98215.27
2019-02-11T03:58:00.513Z,98209.07
2019-02-11T04:00:29.990Z,98209.07
2019-02-11T04:02:59.596Z,98213.22
2019-02-11T04:05:29.000Z,98222.27
2019-02-11T04:10:33.443Z,98218.42
2019-02-11T04:13:34.090Z,98226.27
2019-02-11T04:15:59.418Z,98226.27
2019-02-11T04:18:28.886Z,98224.50
2019-02-11T04:20:58.394Z,98232.23
2019-02-11T04:23:27.918Z,98235.39
2019-02-11T04:26:16.383Z,98238.45
2019-02-11T04:32:03.922Z,98262.19
2019-02-11T04:34:33.338Z,98262.19
2019-02-11T04:37:22.034Z,98265.25
2019-02-11T04:39:51.765Z,98265.25
2019-02-11T04:42:23.958Z,98264.83
2019-02-11T04:45:12.436Z,98274.78
2019-02-11T04:47:41.956Z,98274.78
2019-02-11T04:50:11.499Z,98274.63
2019-02-11T04:52:59.966Z,98278.84
2019-02-11T04:55:29.951Z,98278.84
2019-02-11T04:58:18.726Z,98278.09
2019-02-11T05:00:48.828Z,98278.09
2019-02-11T05:06:08.329Z,98268.80
2019-02-11T05:08:56.585Z,98279.17
2019-02-11T05:11:26.266Z,98274.69
2019-02-11T05:13:55.770Z,98285.07
2019-02-11T05:16:44.270Z,98292.20
2019-02-11T05:19:13.780Z,98292.11
2019-02-11T05:21:43.360Z,98297.70
2019-02-11T05:24:12.984Z,98297.70
2019-02-11T05:26:42.400Z,98302.48
2019-02-11T05:29:11.979Z,98304.31
2019-02-11T05:31:41.515Z,98304.41
2019-02-11T05:34:11.026Z,98307.14
2019-02-11T05:36:40.483Z,98307.14
2019-02-11T05:39:09.904Z,98314.88
2019-02-11T05:41:39.337Z,98327.62
2019-02-11T05:44:08.776Z,98339.90
2019-02-11T05:46:38.261Z,98337.42
2019-02-11T05:49:07.689Z,98343.58
2019-02-11T05:51:37.100Z,98339.86
2019-02-11T05:54:06.575Z,98345.55
2019-02-11T05:56:54.969Z,98350.03
2019-02-11T05:59:43.368Z,98357.05
2019-02-11T06:05:03.429Z,98366.98
2019-02-11T06:07:32.888Z,98374.80
2019-02-11T06:10:02.362Z,98384.56
2019-02-11T06:12:55.259Z,98394.42
2019-02-11T06:15:43.534Z,98387.08
2019-02-11T06:20:49.009Z,98403.04
2019-02-11T06:25:55.111Z,98411.08
2019-02-11T06:28:24.693Z,98420.83
2019-02-11T06:30:54.165Z,98432.53
2019-02-11T06:33:25.369Z,98443.10
2019-02-11T06:35:54.832Z,98437.41
2019-02-11T06:38:24.278Z,98443.81
2019-02-11T06:40:54.230Z,98450.12
2019-02-11T06:43:23.726Z,98459.68
2019-02-11T06:45:53.267Z,98474.42
2019-02-11T06:48:22.830Z,98472.39
2019-02-11T06:50:52.398Z,98478.68
2019-02-11T06:53:24.308Z,98477.58
2019-02-11T06:55:53.909Z,98476.16
2019-02-11T06:58:23.320Z,98481.73
2019-02-11T07:00:52.741Z,98495.74
2019-02-11T07:03:33.613Z,98508.03
2019-02-11T07:06:03.376Z,98520.94
2019-02-11T07:08:32.851Z,98526.89
2019-02-11T07:11:02.464Z,98530.66
2019-02-11T07:13:51.177Z,98527.90
2019-02-11T07:16:32.461Z,98537.11
2019-02-11T07:21:56.763Z,98543.34
2019-02-11T07:24:45.080Z,98555.59
2019-02-11T07:27:26.013Z,98554.35
2019-02-11T07:29:55.871Z,98562.25
2019-02-11T07:32:25.264Z,98569.36
2019-02-11T07:34:54.812Z,98579.17
2019-02-11T07:37:24.199Z,98594.80
2019-02-11T07:39:53.612Z,98598.45
2019-02-11T07:45:30.065Z,98606.18
2019-02-11T07:47:59.086Z,98608.25
2019-02-11T07:50:28.479Z,98614.27
2019-02-11T07:55:38.910Z,98617.61
2019-02-11T08:00:49.492Z,98629.30
2019-02-11T08:06:02.874Z,98654.05
2019-02-11T08:11:25.785Z,98660.91
2019-02-11T08:13:55.204Z,98665.23
2019-02-11T08:16:24.647Z,98665.11
2019-02-11T08:18:54.230Z,98677.40
2019-02-11T08:21:23.703Z,98674.06
2019-02-11T08:23:53.152Z,98683.87
2019-02-11T08:26:22.784Z,98682.05
2019-02-11T08:28:52.285Z,98693.45
2019-02-11T08:31:42.562Z,98693.45
2019-02-11T08:34:12.371Z,98709.91
2019-02-11T08:36:41.889Z,98710.04
2019-02-11T08:41:56.656Z,98730.97
2019-02-11T08:47:07.685Z,98733.83
2019-02-11T08:49:37.119Z,98751.20
2019-02-11T08:52:06.531Z,98753.02
2019-02-11T08:54:54.786Z,98761.54
2019-02-11T09:00:14.925Z,98753.81
2019-02-11T09:03:12.467Z,98764.09
2019-02-11T09:06:04.114Z,98771.70
2019-02-11T09:08:33.703Z,98771.70
2019-02-11T09:11:03.205Z,98781.19
2019-02-11T09:13:32.623Z,98787.94
2019-02-11T09:16:02.027Z,98788.26
2019-02-11T09:18:31.438Z,98796.30
2019-02-11T09:21:22.247Z,98801.03
2019-02-11T09:24:13.151Z,98811.81
2019-02-11T09:29:23.202Z,98829.20
2019-02-11T09:31:52.662Z,98832.79
2019-02-11T09:37:13.330Z,98842.98
2019-02-11T09:40:01.783Z,98844.68
2019-02-11T09:45:13.687Z,98863.92
2019-02-11T09:50:38.080Z,98885.78
2019-02-11T09:53:26.671Z,98883.14
2019-02-11T09:58:55.871Z,98898.77
2019-02-11T10:01:25.309Z,98901.48
2019-02-11T10:03:54.739Z,98908.03
2019-02-11T10:06:43.443Z,98912.98
2019-02-11T10:09:14.461Z,98912.98
2019-02-11T10:11:45.959Z,98926.13
2019-02-11T10:14:34.459Z,98923.14
2019-02-11T10:19:57.555Z,98934.37
2019-02-11T10:22:27.001Z,98938.47
2019-02-11T10:24:56.377Z,98955.15
2019-02-11T10:27:44.827Z,98948.19
2019-02-11T10:30:15.120Z,98963.64
2019-02-11T10:32:44.539Z,98963.45
2019-02-11T10:35:42.065Z,98971.95
2019-02-11T10:41:00.150Z,98976.45
2019-02-11T10:43:29.714Z,98982.81
2019-02-11T10:46:32.672Z,98991.09
2019-02-11T10:49:01.012Z,98997.73
2019-02-11T10:51:30.696Z,98996.92
2019-02-11T10:56:49.058Z,98999.18
2019-02-11T10:59:18.982Z,99008.63
2019-02-11T11:02:09.441Z,99019.59
2019-02-11T11:04:39.261Z,99027.05
2019-02-11T11:07:10.776Z,99027.05
2019-02-11T11:12:15.359Z,99050.41
2019-02-11T11:14:44.919Z,99058.69
2019-02-11T11:17:14.369Z,99068.41
2019-02-11T11:20:02.859Z,99073.75
2019-02-11T11:22:32.325Z,99073.75
2019-02-11T11:25:01.766Z,99075.44
2019-02-11T11:27:31.198Z,99084.65
2019-02-11T11:30:00.610Z,99087.52
2019-02-11T11:32:34.349Z,99098.47
2019-02-11T11:35:03.827Z,99100.61
2019-02-11T11:37:33.238Z,99102.52
2019-02-11T11:43:11.573Z,99110.23
2019-02-11T11:45:41.458Z,99104.34
2019-02-11T11:48:33.724Z,99129.14
2019-02-11T11:53:45.710Z,99123.48
2019-02-11T11:56:15.192Z,99132.41
2019-02-11T11:59:03.817Z,99144.39
2019-02-11T12:01:33.255Z,99144.39
2019-02-11T12:04:24.602Z,99152.67
2019-02-11T12:07:06.330Z,99152.67
2019-02-11T12:09:35.806Z,99173.41
2019-02-11T12:12:05.228Z,99168.13
2019-02-11T12:14:34.717Z,99170.00
2019-02-11T12:17:04.199Z,99170.58
2019-02-11T12:19:53.702Z,99169.16
2019-02-11T12:22:23.224Z,99169.16
2019-02-11T12:24:52.801Z,99175.88
2019-02-11T12:27:22.335Z,99190.91
2019-02-11T12:29:52.266Z,99183.80
2019-02-11T12:32:21.877Z,99196.38
2019-02-11T12:34:54.139Z,99197.64
2019-02-11T12:37:23.630Z,99196.19
2019-02-11T12:39:53.053Z,99198.09
2019-02-11T12:42:22.490Z,99203.51
2019-02-11T12:44:52.251Z,99219.30
2019-02-11T12:47:21.711Z,99216.94
2019-02-11T12:49:57.909Z,99222.55
2019-02-11T12:52:27.594Z,99233.17
2019-02-11T12:54:57.029Z,99226.75
2019-02-11T12:57:26.691Z,99233.73
2019-02-11T12:59:56.103Z,99249.20
2019-02-11T13:02:25.582Z,99264.63
2019-02-11T13:04:59.704Z,99264.69
2019-02-11T13:07:29.174Z,99255.37
2019-02-11T13:09:59.156Z,99262.94
2019-02-11T13:12:28.570Z,99263.57
2019-02-11T13:14:58.589Z,99260.61
2019-02-11T13:17:33.788Z,99266.78
2019-02-11T13:20:09.094Z,99268.92
2019-02-11T13:25:43.438Z,99292.08
2019-02-11T13:28:24.808Z,99292.08
2019-02-11T13:30:54.386Z,99291.13
2019-02-11T13:33:23.821Z,99295.28
2019-02-11T13:35:53.365Z,99299.75
2019-02-11T13:38:22.869Z,99292.00
2019-02-11T13:40:52.442Z,99316.59
2019-02-11T13:43:21.926Z,99316.59
2019-02-11T13:45:51.640Z,99322.94
2019-02-11T13:48:21.321Z,99323.31
2019-02-11T13:50:50.966Z,99324.13
2019-02-11T13:56:14.771Z,99327.41
2019-02-11T13:58:44.341Z,99327.41
2019-02-11T14:06:54.021Z,99352.42
2019-02-11T14:09:23.478Z,99357.53
2019-02-11T14:12:07.217Z,99367.05
2019-02-11T14:14:35.831Z,99367.05
2019-02-11T14:17:17.163Z,99369.70
2019-02-11T14:19:46.729Z,99378.83
2019-02-11T14:22:16.159Z,99376.69
2019-02-11T14:24:51.474Z,99381.80
2019-02-11T14:27:23.002Z,99392.38
2019-02-11T14:29:52.478Z,99397.35
2019-02-11T14:32:41.176Z,99410.09
2019-02-11T14:38:24.316Z,99415.56
2019-02-11T14:40:55.393Z,99420.39
2019-02-11T14:43:24.895Z,99410.64
2019-02-11T14:45:55.143Z,99424.33
2019-02-11T14:48:28.154Z,99430.02
2019-02-11T14:50:55.990Z,99428.30
2019-02-11T14:53:25.491Z,99424.43
2019-02-11T14:55:58.354Z,99446.59
2019-02-11T14:58:46.868Z,99449.62
2019-02-11T15:01:16.787Z,99449.62
2019-02-11T15:03:47.863Z,99455.80
2019-02-11T15:06:17.466Z,99457.14
2019-02-11T15:08:46.893Z,99466.75
2019-02-11T15:11:17.717Z,99465.95
2019-02-11T15:13:47.225Z,99467.02
2019-02-11T15:16:16.678Z,99479.94
2019-02-11T15:18:46.093Z,99486.62
2019-02-11T15:23:50.723Z,99497.14
2019-02-11T15:29:04.001Z,99504.50
2019-02-11T15:31:33.416Z,99510.35
2019-02-11T15:34:02.924Z,99522.59
2019-02-11T15:36:32.368Z,99530.41
2019-02-11T15:39:01.900Z,99535.37
2019-02-11T15:41:31.714Z,99547.93
2019-02-11T15:44:01.320Z,99541.53
2019-02-11T15:46:30.722Z,99545.83
2019-02-11T15:49:00.149Z,99555.41
2019-02-11T15:51:29.743Z,99558.91
2019-02-11T15:53:59.245Z,99570.47
2019-02-11T15:56:28.692Z,99575.59
2019-02-11T15:58:58.287Z,99582.55
2019-02-11T16:01:27.710Z,99589.31
2019-02-11T16:04:16.234Z,99581.76
2019-02-11T16:06:46.099Z,99581.76
2019-02-11T16:09:15.528Z,99592.97
2019-02-11T16:12:04.161Z,99612.45
2019-02-11T16:14:45.210Z,99598.29
2019-02-11T16:17:14.696Z,99618.08
2019-02-11T16:19:46.996Z,99615.59
2019-02-11T16:25:05.168Z,99627.13
2019-02-11T16:27:53.707Z,99632.73
2019-02-11T16:30:23.237Z,99639.65
2019-02-11T16:32:52.681Z,99639.65
2019-02-11T16:35:22.244Z,99632.73
2019-02-11T16:38:10.736Z,99655.98
2019-02-11T16:40:40.275Z,99653.17
2019-02-11T16:45:59.541Z,99663.38
2019-02-11T16:48:28.955Z,99669.31
2019-02-11T16:51:17.532Z,99671.77
2019-02-11T16:53:58.432Z,99681.47
2019-02-11T16:56:28.188Z,99681.47
2019-02-11T16:58:57.706Z,99676.03
2019-02-11T17:04:15.701Z,99690.66
2019-02-11T17:07:04.807Z,99707.78
2019-02-11T17:09:46.087Z,99711.06
2019-02-11T17:12:15.556Z,99711.06
2019-02-11T17:15:17.348Z,99707.58
2019-02-11T17:17:47.031Z,99707.58
2019-02-11T17:23:12.014Z,99719.11
2019-02-11T17:25:41.707Z,99723.05
2019-02-11T17:28:11.315Z,99715.45
2019-02-11T17:31:07.241Z,99725.51
2019-02-11T17:33:48.392Z,99724.34
2019-02-11T17:36:18.541Z,99724.34
2019-02-11T17:38:48.130Z,99725.66
2019-02-11T17:41:17.779Z,99720.67
2019-02-11T17:44:06.367Z,99735.69
2019-02-11T17:46:36.013Z,99735.69
2019-02-11T17:49:05.651Z,99727.11
2019-02-11T17:51:35.169Z,99737.16
2019-02-11T17:54:05.244Z,99738.62
2019-02-11T17:56:34.677Z,99748.17
2019-02-11T17:59:04.752Z,99750.81
2019-02-11T18:07:16.621Z,99764.81
2019-02-11T18:09:46.199Z,99764.81
2019-02-11T18:12:15.767Z,99771.70
2019-02-11T18:15:06.148Z,99771.70
2019-02-11T18:17:35.682Z,99776.14
2019-02-11T18:20:05.552Z,99771.02
2019-02-11T18:22:54.102Z,99780.06
2019-02-11T18:25:23.815Z,99780.06
2019-02-11T18:27:55.003Z,99792.09
2019-02-11T18:32:59.053Z,99804.89
2019-02-11T18:35:29.099Z,99801.23
2019-02-11T18:38:17.458Z,99812.44
2019-02-11T18:41:06.259Z,99823.58
2019-02-11T18:43:36.509Z,99823.58
2019-02-11T18:46:25.461Z,99817.14
2019-02-11T18:48:55.057Z,99817.14
2019-02-11T18:51:24.636Z,99826.36
2019-02-11T18:53:54.359Z,99825.04
2019-02-11T18:56:29.047Z,99835.53
2019-02-11T18:59:24.413Z,99849.22
2019-02-11T19:02:02.362Z,99849.22
2019-02-11T19:04:31.865Z,99840.59
2019-02-11T19:07:01.348Z,99844.41
2019-02-11T19:09:31.290Z,99844.41
2019-02-11T19:12:19.721Z,99843.91
2019-02-11T19:17:38.529Z,99855.08
2019-02-11T19:20:09.132Z,99861.32
2019-02-11T19:22:38.819Z,99857.17
2019-02-11T19:25:09.250Z,99857.17
2019-02-11T19:27:39.164Z,99868.20
2019-02-11T19:30:14.947Z,99871.51
2019-02-11T19:32:44.890Z,99873.31
2019-02-11T19:35:33.507Z,99875.12
2019-02-11T19:38:14.470Z,99878.87
2019-02-11T19:40:44.182Z,99878.87
2019-02-11T19:43:33.040Z,99874.78
2019-02-11T19:46:14.702Z,99874.78
2019-02-11T19:48:44.396Z,99882.52
2019-02-11T19:51:14.271Z,99884.95
2019-02-11T19:54:02.861Z,99891.68
2019-02-11T19:56:32.800Z,99891.68
2019-02-11T19:59:02.323Z,99886.91
2019-02-11T20:01:32.463Z,99890.84
2019-02-11T20:07:05.936Z,99907.47
2019-02-11T20:09:35.466Z,99906.59
2019-02-11T20:12:44.387Z,99915.27
2019-02-11T20:18:06.447Z,99931.05
2019-02-11T20:20:35.929Z,99928.27
2019-02-11T20:23:24.620Z,99944.97
2019-02-11T20:28:51.868Z,99953.98
2019-02-11T20:31:33.932Z,99958.91
2019-02-11T20:34:15.229Z,99961.53
2019-02-11T20:36:45.220Z,99961.53
2019-02-11T20:39:33.799Z,99975.30
2019-02-11T20:42:03.469Z,99975.30
2019-02-11T20:44:52.093Z,99983.13
2019-02-11T20:47:21.832Z,99997.26
2019-02-11T20:50:12.130Z,99997.26
2019-02-11T20:52:41.769Z,99988.53
2019-02-11T20:55:12.490Z,99996.91
2019-02-11T21:03:11.890Z,99998.86
2019-02-11T21:05:52.658Z,99999.34
2019-02-11T21:08:22.641Z,99999.34
2019-02-11T21:10:52.570Z,100001.74
2019-02-11T21:13:22.297Z,100009.84
2019-02-11T21:15:52.917Z,100024.99
2019-02-11T21:18:22.680Z,100024.99
2019-02-11T21:21:12.589Z,100039.39
2019-02-11T21:23:42.003Z,100039.39
2019-02-11T21:26:11.734Z,100045.20
2019-02-11T21:28:53.568Z,100045.20
2019-02-11T21:31:26.098Z,100041.88
2019-02-11T21:36:32.490Z,100052.20
2019-02-11T21:39:14.078Z,100054.00
2019-02-11T21:41:45.592Z,100063.34
2019-02-11T21:44:18.751Z,100058.71
2019-02-11T21:54:42.438Z,100073.91
2019-02-11T21:57:12.025Z,100080.13
2019-02-11T21:59:41.584Z,100082.08
2019-02-11T22:02:11.350Z,100091.90
2019-02-11T22:04:40.996Z,100091.34
2019-02-11T22:07:30.025Z,100101.69
2019-02-11T22:13:01.986Z,100106.53
2019-02-11T22:18:09.935Z,100108.12
2019-02-11T22:20:39.891Z,100111.37
2019-02-11T22:23:09.306Z,100111.37
2019-02-11T22:25:38.993Z,100123.84
2019-02-11T22:28:08.346Z,100131.73
2019-02-11T22:30:40.933Z,100128.89
2019-02-11T22:33:10.557Z,100141.20
2019-02-11T22:35:40.304Z,100134.42
2019-02-11T22:41:13.890Z,100147.35
2019-02-11T22:43:44.051Z,100145.69
2019-02-11T22:46:13.661Z,100149.29
2019-02-11T22:48:43.259Z,100148.45
2019-02-11T22:51:13.213Z,100148.45
2019-02-11T22:53:42.825Z,100143.68
2019-02-11T22:58:48.659Z,100158.57
2019-02-11T23:01:29.846Z,100172.20
2019-02-11T23:03:59.662Z,100169.48
2019-02-11T23:06:29.273Z,100175.09
2019-02-11T23:09:01.432Z,100182.28
2019-02-11T23:12:09.179Z,100198.53
2019-02-11T23:14:29.912Z,100198.53
2019-02-11T23:16:59.744Z,100197.97
2019-02-11T23:19:48.373Z,100200.41
2019-02-11T23:22:19.806Z,100201.02
2019-02-11T23:24:49.583Z,100212.49
2019-02-11T23:29:54.265Z,100222.09
2019-02-11T23:32:24.244Z,100226.99
2019-02-11T23:34:53.994Z,100235.48
2019-02-11T23:37:23.764Z,100230.87
2019-02-11T23:39:53.506Z,100231.97
2019-02-11T23:42:22.919Z,100237.48
2019-02-11T23:44:52.694Z,100239.89
2019-02-11T23:47:24.945Z,100242.65
2019-02-11T23:49:54.520Z,100254.59
2019-02-11T23:52:24.264Z,100251.14
2019-02-11T23:54:53.969Z,100254.77
2019-02-11T23:57:23.519Z,100263.13
2019-02-11T23:59:52.980Z,100263.60
